VBRA4: Lee Creek, Van Buren

Data processed at Sun Apr 30 2017 23:15


All information presented herein is the property of the government of the United States of America and may be revised or deleted at any time without prior notice.
Dissemination of this information without the expressed written consent of the Public Affairs Office, Tulsa District U.S. Army Corps of Engineers is strictly prohibited.
These data are gathered electronically and, as presented, have not undergone any form of quality control. These data are not guaranteed to be valid or correct.
Go to home page.
Go to station list.
Go to station map.

Upstream stations:

Downstream station:
Previous Day
Next Day
Current Day
    
SHEF ID:       VBRA4     Lee Creek at Lee Creek Reservoir
STATION TYPE:  

               PRECIP     STAGE  RIV-FLOW  BAT-LOAD
                   in        ft       cfs      volt
              Ccp-Rev   Ccp-Rev   Ccp-Rev   Ccp-Rev
(US/Central)
04/30 00:00      0.06     21.47      6061     12.65
04/30 01:00      0.02     21.86      8712     12.65
04/30 02:00      0.24     22.34     12260     12.65
04/30 03:00      0.20     22.86     16740     12.65
04/30 04:00      0.03     23.32     21200     12.65
04/30 05:00      0.01     23.66     24600     12.65
04/30 06:00      0.00     23.90     27000     12.65
04/30 07:00      0.00     24.10     29100     12.65
04/30 08:00      0.00     24.22     30420     12.65
04/30 09:00      0.00     24.18     29980     12.65
04/30 10:00      0.00     23.62     24200     12.73
04/30 11:00      0.00     23.11     19100     12.81
04/30 12:00      0.00     22.80     16200     12.97
04/30 13:00      0.00     22.66     14940     13.05
04/30 14:00      0.00     22.57     14160     13.13
04/30 15:00      0.00     22.46     13280     13.44
04/30 16:00      0.00     22.33     12170     13.13
04/30 17:00      0.00     22.19     11020     13.29
04/30 18:00      0.00     22.07     10105     12.97
04/30 19:00      0.00     21.95      9325     12.89
04/30 20:00      0.00     21.87      8784     12.89
04/30 21:00      0.00     21.78      8139     12.81
04/30 22:00      ----     21.72      7716     12.81
04/30 23:00      ----      ----      ----      ----